Terminal Aerodrome Forecast
Issued by NWS New Orleans/Baton Rouge, LA

Home | Current Version | Previous Version | Text Only | Print | Product List | Glossary On
Versions: 1 2 3 4 5 6 7 8 9 10 11 12 13 14
000
FTUS44 KLIX 242300
TAFBTR
TAF
KBTR 242320Z 2500/2524 00000KT P6SM SCT250
     FM250300 30004KT P6SM FEW025
     FM250500 00000KT P6SM SKC
     FM252200 21006KT P6SM SCT040=

USA.gov is the U.S. government's official web portal to all federal, state and local government web resources and services.